createdAt,value
2022-07-30T00:00:25.104Z,3.70
2022-07-30T00:03:13.230Z,3.58
2022-07-30T00:06:00.657Z,3.20
2022-07-30T00:08:47.705Z,3.22
2022-07-30T00:11:35.882Z,2.95
2022-07-30T00:14:22.980Z,4.47
2022-07-30T00:17:10.678Z,2.50
2022-07-30T00:19:57.613Z,2.72
2022-07-30T00:22:45.087Z,4.38
2022-07-30T00:25:32.292Z,3.42
2022-07-30T00:28:19.981Z,4.38
2022-07-30T00:31:07.075Z,4.07
2022-07-30T00:33:54.558Z,3.95
2022-07-30T00:36:41.744Z,2.55
2022-07-30T00:39:30.973Z,2.83
2022-07-30T00:42:25.954Z,2.88
2022-07-30T00:45:14.720Z,2.50
2022-07-30T00:48:02.176Z,2.85
2022-07-30T00:50:50.809Z,4.53
2022-07-30T00:53:38.912Z,2.35
2022-07-30T00:56:25.950Z,2.80
2022-07-30T00:59:13.861Z,4.28
2022-07-30T01:02:01.749Z,3.10
2022-07-30T01:04:49.862Z,2.40
2022-07-30T01:07:39.911Z,3.60
2022-07-30T01:10:27.508Z,2.35
2022-07-30T01:13:14.557Z,2.63
2022-07-30T01:16:02.258Z,2.97
2022-07-30T01:19:09.544Z,2.30
2022-07-30T01:22:27.831Z,2.50
2022-07-30T01:25:40.226Z,3.10
2022-07-30T01:28:32.292Z,3.63
2022-07-30T01:31:21.323Z,3.40
2022-07-30T01:34:09.611Z,2.30
2022-07-30T01:36:59.797Z,2.55
2022-07-30T01:39:47.945Z,2.90
2022-07-30T01:42:36.644Z,2.45
2022-07-30T01:45:25.494Z,2.65
2022-07-30T01:48:15.372Z,2.67
2022-07-30T01:51:05.926Z,4.57
2022-07-30T01:53:54.985Z,2.65
2022-07-30T01:56:43.962Z,2.58
2022-07-30T01:59:34.891Z,3.00
2022-07-30T02:02:21.980Z,5.68
2022-07-30T02:05:10.102Z,3.03
2022-07-30T02:08:11.152Z,4.22
2022-07-30T02:11:08.150Z,4.20
2022-07-30T02:13:58.311Z,4.15
2022-07-30T02:16:47.630Z,3.42
2022-07-30T02:19:43.141Z,3.00
2022-07-30T02:22:34.992Z,2.80
2022-07-30T02:25:23.684Z,3.25
2022-07-30T02:28:14.425Z,6.05
2022-07-30T02:31:02.416Z,3.65
2022-07-30T02:34:06.821Z,3.97
2022-07-30T02:36:55.578Z,3.42
2022-07-30T02:39:43.743Z,3.47
2022-07-30T02:42:32.314Z,5.05
2022-07-30T02:45:21.337Z,4.10
2022-07-30T02:48:10.767Z,3.92
2022-07-30T02:51:20.198Z,3.53
2022-07-30T02:54:07.854Z,4.05
2022-07-30T02:56:56.403Z,3.38
2022-07-30T02:59:44.631Z,4.50
2022-07-30T03:02:34.287Z,4.05
2022-07-30T03:05:26.735Z,4.95
2022-07-30T03:08:19.949Z,3.50
2022-07-30T03:11:08.016Z,7.07
2022-07-30T03:13:55.646Z,7.70
2022-07-30T03:16:49.105Z,6.47
2022-07-30T03:19:39.448Z,5.60
2022-07-30T03:22:32.846Z,3.47
2022-07-30T03:25:24.392Z,4.15
2022-07-30T03:28:12.931Z,5.25
2022-07-30T03:31:01.236Z,4.45
2022-07-30T03:33:50.095Z,4.35
2022-07-30T03:36:38.730Z,3.55
2022-07-30T03:39:28.347Z,4.15
2022-07-30T03:42:15.981Z,3.83
2022-07-30T03:45:09.209Z,6.03
2022-07-30T03:47:57.370Z,4.28
2022-07-30T03:50:46.416Z,6.00
2022-07-30T03:53:34.682Z,4.90
2022-07-30T03:56:22.165Z,4.82
2022-07-30T03:59:10.084Z,4.60
2022-07-30T04:02:07.208Z,5.35
2022-07-30T04:04:55.003Z,7.30
2022-07-30T04:07:44.878Z,4.03
2022-07-30T04:10:33.031Z,5.05
2022-07-30T04:13:20.088Z,6.13
2022-07-30T04:16:39.518Z,5.05
2022-07-30T04:19:40.547Z,4.40
2022-07-30T04:22:30.408Z,4.43
2022-07-30T04:25:24.061Z,4.90
2022-07-30T04:28:12.386Z,6.30
2022-07-30T04:31:00.246Z,4.95
2022-07-30T04:33:47.904Z,3.88
2022-07-30T04:36:36.229Z,5.07
2022-07-30T04:39:23.252Z,4.68
2022-07-30T04:42:10.993Z,4.35
2022-07-30T04:44:58.567Z,4.28
2022-07-30T04:47:46.375Z,5.68
2022-07-30T04:50:36.362Z,4.57
2022-07-30T04:53:24.767Z,5.03
2022-07-30T04:56:12.688Z,5.25
2022-07-30T04:59:00.669Z,4.00
2022-07-30T05:01:50.174Z,3.70
2022-07-30T05:04:38.586Z,4.45
2022-07-30T05:07:27.193Z,5.13
2022-07-30T05:10:14.789Z,4.05
2022-07-30T05:13:01.832Z,5.00
2022-07-30T05:15:49.365Z,3.75
2022-07-30T05:18:36.430Z,11.65
2022-07-30T05:21:23.864Z,5.65
2022-07-30T05:24:15.729Z,5.45
2022-07-30T05:27:03.627Z,4.35
2022-07-30T05:29:50.834Z,4.18
2022-07-30T05:32:38.762Z,3.97
2022-07-30T05:35:25.816Z,4.35
2022-07-30T05:38:13.781Z,3.78
2022-07-30T05:41:01.644Z,4.30
2022-07-30T05:43:48.659Z,4.03
2022-07-30T05:46:43.712Z,5.55
2022-07-30T05:49:30.756Z,5.70
2022-07-30T05:52:18.325Z,6.10
2022-07-30T05:55:05.972Z,5.45
2022-07-30T05:57:53.474Z,6.35
2022-07-30T06:00:40.539Z,5.30
2022-07-30T06:03:27.982Z,4.72
2022-07-30T06:06:18.597Z,4.78
2022-07-30T06:09:08.663Z,3.85
2022-07-30T06:11:57.536Z,3.83
2022-07-30T06:14:45.264Z,4.45
2022-07-30T06:17:41.123Z,4.78
2022-07-30T06:20:28.737Z,3.72
2022-07-30T06:23:16.360Z,4.53
2022-07-30T06:26:03.794Z,3.97
2022-07-30T06:28:51.353Z,5.63
2022-07-30T06:31:40.098Z,6.13
2022-07-30T06:34:27.089Z,4.07
2022-07-30T06:37:14.091Z,4.20
2022-07-30T06:40:01.530Z,4.65
2022-07-30T06:42:49.074Z,4.72
2022-07-30T06:45:36.141Z,4.97
2022-07-30T06:48:23.642Z,4.20
2022-07-30T06:51:10.707Z,5.55
2022-07-30T06:53:58.231Z,5.97
2022-07-30T06:56:45.261Z,4.47
2022-07-30T06:59:32.882Z,5.45
2022-07-30T07:02:39.873Z,4.07
2022-07-30T07:05:29.404Z,8.43
2022-07-30T07:08:16.500Z,5.82
2022-07-30T07:11:04.093Z,8.23
2022-07-30T07:13:51.079Z,5.63
2022-07-30T07:16:38.639Z,3.88
2022-07-30T07:19:59.810Z,8.15
2022-07-30T07:22:33.162Z,6.38
2022-07-30T07:25:20.690Z,5.95
2022-07-30T07:28:11.943Z,4.35
2022-07-30T07:31:00.902Z,6.38
2022-07-30T07:33:48.263Z,5.30
2022-07-30T07:36:36.702Z,6.55
2022-07-30T07:39:23.742Z,5.22
2022-07-30T07:42:11.238Z,6.07
2022-07-30T07:44:58.370Z,6.13
2022-07-30T07:47:49.236Z,5.80
2022-07-30T07:50:39.757Z,5.70
2022-07-30T07:53:27.400Z,6.35
2022-07-30T07:56:14.433Z,6.70
2022-07-30T07:59:01.386Z,6.50
2022-07-30T08:01:49.940Z,6.22
2022-07-30T08:04:37.036Z,8.63
2022-07-30T08:07:24.593Z,4.95
2022-07-30T08:10:14.064Z,6.22
2022-07-30T08:13:03.950Z,5.80
2022-07-30T08:15:51.001Z,5.25
2022-07-30T08:18:38.848Z,4.47
2022-07-30T08:21:25.877Z,7.47
2022-07-30T08:24:13.243Z,7.03
2022-07-30T08:27:00.591Z,4.53
2022-07-30T08:29:48.552Z,4.53
2022-07-30T08:32:36.054Z,4.25
2022-07-30T08:35:23.515Z,4.43
2022-07-30T08:38:11.244Z,4.75
2022-07-30T08:40:59.116Z,4.07
2022-07-30T08:43:50.394Z,4.75
2022-07-30T08:46:42.473Z,3.35
2022-07-30T08:49:35.317Z,6.13
2022-07-30T08:52:22.810Z,4.20
2022-07-30T08:55:10.464Z,3.95
2022-07-30T08:57:57.907Z,3.60
2022-07-30T09:00:45.381Z,4.10
2022-07-30T09:03:32.771Z,3.72
2022-07-30T09:06:20.410Z,4.57
2022-07-30T09:09:09.097Z,5.32
2022-07-30T09:11:56.085Z,4.07
2022-07-30T09:15:22.529Z,5.60
2022-07-30T09:18:09.972Z,4.00
2022-07-30T09:20:59.461Z,8.15
2022-07-30T09:23:56.006Z,5.07
2022-07-30T09:27:01.976Z,6.15
2022-07-30T09:29:59.732Z,5.07
2022-07-30T09:32:51.834Z,5.50
2022-07-30T09:35:40.373Z,4.80
2022-07-30T09:38:28.139Z,4.63
2022-07-30T09:41:37.785Z,4.10
2022-07-30T09:44:29.668Z,3.47
2022-07-30T09:47:39.641Z,4.03
2022-07-30T09:50:30.170Z,3.95
2022-07-30T09:53:19.269Z,2.90
2022-07-30T09:56:30.075Z,4.40
2022-07-30T09:59:28.529Z,3.47
2022-07-30T10:02:32.426Z,5.53
2022-07-30T10:05:20.662Z,5.70
2022-07-30T10:08:16.660Z,4.57
2022-07-30T10:11:08.652Z,2.92
2022-07-30T10:13:59.983Z,5.35
2022-07-30T10:16:47.484Z,3.72
2022-07-30T10:19:39.917Z,5.47
2022-07-30T10:22:29.481Z,3.42
2022-07-30T10:25:23.192Z,5.88
2022-07-30T10:28:15.575Z,4.07
2022-07-30T10:31:06.828Z,4.40
2022-07-30T10:34:13.500Z,4.80
2022-07-30T10:37:06.627Z,4.18
2022-07-30T10:39:59.204Z,4.30
2022-07-30T10:43:15.987Z,5.22
2022-07-30T10:46:29.627Z,3.28
2022-07-30T10:49:19.063Z,3.00
2022-07-30T10:52:07.029Z,2.10
2022-07-30T10:54:54.058Z,5.18
2022-07-30T10:58:01.056Z,4.30
2022-07-30T11:01:06.032Z,7.25
2022-07-30T11:04:20.545Z,3.17
2022-07-30T11:07:23.562Z,3.08
2022-07-30T11:10:34.788Z,3.50
2022-07-30T11:13:59.884Z,3.25
2022-07-30T11:16:51.308Z,3.78
2022-07-30T11:20:07.302Z,4.13
2022-07-30T11:23:21.273Z,3.30
2022-07-30T11:26:14.544Z,2.83
2022-07-30T11:29:02.124Z,2.17
2022-07-30T11:31:58.589Z,3.35
2022-07-30T11:34:47.763Z,3.33
2022-07-30T11:38:01.993Z,2.33
2022-07-30T11:40:49.584Z,2.90
2022-07-30T11:43:37.141Z,3.08
2022-07-30T11:46:28.465Z,3.63
2022-07-30T11:49:17.547Z,2.97
2022-07-30T11:52:05.101Z,3.15
2022-07-30T11:54:54.995Z,2.72
2022-07-30T11:57:42.779Z,4.47
2022-07-30T12:00:48.091Z,2.10
2022-07-30T12:03:39.718Z,4.63
2022-07-30T12:06:27.213Z,5.70
2022-07-30T12:09:23.742Z,4.28
2022-07-30T12:12:24.146Z,3.47
2022-07-30T12:15:27.910Z,2.13
2022-07-30T12:18:27.726Z,1.95
2022-07-30T12:21:17.855Z,2.25
2022-07-30T12:24:13.574Z,5.72
2022-07-30T12:27:08.427Z,2.75
2022-07-30T12:29:55.523Z,4.20
2022-07-30T12:32:46.757Z,1.92
2022-07-30T12:35:45.699Z,3.72
2022-07-30T12:38:45.504Z,2.28
2022-07-30T12:41:49.658Z,2.47
2022-07-30T12:44:38.810Z,2.53
2022-07-30T12:47:27.769Z,2.55
2022-07-30T12:50:17.824Z,2.92
2022-07-30T12:53:04.801Z,3.13
2022-07-30T12:55:51.805Z,2.92
2022-07-30T12:58:39.126Z,3.10
2022-07-30T13:01:43.800Z,3.40
2022-07-30T13:04:32.375Z,1.50
2022-07-30T13:07:20.425Z,2.20
2022-07-30T13:10:10.589Z,2.75
2022-07-30T13:12:58.329Z,2.08
2022-07-30T13:15:56.606Z,2.60
2022-07-30T13:18:44.616Z,3.15
2022-07-30T13:21:31.604Z,2.47
2022-07-30T13:24:19.624Z,2.30
2022-07-30T13:27:07.048Z,2.58
2022-07-30T13:29:54.714Z,2.25
2022-07-30T13:32:41.693Z,2.88
2022-07-30T13:35:29.167Z,2.97
2022-07-30T13:38:16.070Z,2.53
2022-07-30T13:41:05.176Z,3.25
2022-07-30T13:43:52.341Z,2.22
2022-07-30T13:46:41.458Z,5.13
2022-07-30T13:49:28.684Z,4.03
2022-07-30T13:52:17.546Z,3.50
2022-07-30T13:55:05.013Z,2.08
2022-07-30T13:57:52.632Z,4.03
2022-07-30T14:00:40.858Z,3.08
2022-07-30T14:03:27.885Z,5.22
2022-07-30T14:06:15.632Z,2.58
2022-07-30T14:09:02.729Z,2.50
2022-07-30T14:11:50.177Z,3.22
2022-07-30T14:14:37.130Z,3.75
2022-07-30T14:17:24.176Z,2.53
2022-07-30T14:20:11.732Z,1.98
2022-07-30T14:22:59.605Z,2.17
2022-07-30T14:25:46.818Z,5.22
2022-07-30T14:28:34.298Z,2.70
2022-07-30T14:31:21.283Z,4.70
2022-07-30T14:34:09.374Z,3.65
2022-07-30T14:36:56.350Z,2.50
2022-07-30T14:39:43.492Z,2.22
2022-07-30T14:42:30.495Z,2.97
2022-07-30T14:45:17.628Z,3.30
2022-07-30T14:48:04.959Z,2.75
2022-07-30T14:51:12.130Z,3.20
2022-07-30T14:53:58.936Z,1.98
2022-07-30T14:56:45.915Z,2.35
2022-07-30T14:59:33.375Z,2.53
2022-07-30T15:02:20.362Z,2.60
2022-07-30T15:05:08.334Z,4.63
2022-07-30T15:07:55.758Z,2.75
2022-07-30T15:10:42.902Z,3.25
2022-07-30T15:13:31.159Z,4.72
2022-07-30T15:16:20.143Z,2.47
2022-07-30T15:19:07.637Z,2.58
2022-07-30T15:21:54.666Z,3.22
2022-07-30T15:24:41.745Z,3.78
2022-07-30T15:27:34.043Z,3.13
2022-07-30T15:30:22.041Z,3.55
2022-07-30T15:33:09.115Z,1.73
2022-07-30T15:35:57.331Z,3.83
2022-07-30T15:38:44.624Z,2.33
2022-07-30T15:41:33.290Z,2.75
2022-07-30T15:44:20.725Z,3.92
2022-07-30T15:47:11.513Z,3.05
2022-07-30T15:50:00.575Z,5.15
2022-07-30T15:52:47.593Z,2.10
2022-07-30T15:55:47.465Z,3.08
2022-07-30T15:58:35.201Z,4.32
2022-07-30T16:01:23.254Z,2.85
2022-07-30T16:04:18.390Z,1.50
2022-07-30T16:07:07.870Z,3.65
2022-07-30T16:09:55.317Z,4.15
2022-07-30T16:12:42.484Z,1.75
2022-07-30T16:15:29.802Z,1.70
2022-07-30T16:18:16.785Z,2.42
2022-07-30T16:21:04.302Z,4.43
2022-07-30T16:23:52.528Z,3.20
2022-07-30T16:26:40.254Z,4.35
2022-07-30T16:29:27.266Z,1.40
2022-07-30T16:32:14.734Z,9.18
2022-07-30T16:35:01.920Z,1.90
2022-07-30T16:37:49.436Z,2.50
2022-07-30T16:40:36.455Z,2.60
2022-07-30T16:43:23.882Z,2.63
2022-07-30T16:46:13.611Z,3.40
2022-07-30T16:49:01.183Z,2.20
2022-07-30T16:51:48.149Z,3.33
2022-07-30T16:54:35.226Z,3.55
2022-07-30T16:57:22.235Z,2.10
2022-07-30T17:00:12.468Z,1.63
2022-07-30T17:02:59.500Z,2.13
2022-07-30T17:05:46.994Z,1.58
2022-07-30T17:08:34.177Z,4.85
2022-07-30T17:11:47.692Z,2.05
2022-07-30T17:14:29.472Z,3.15
2022-07-30T17:17:16.466Z,2.38
2022-07-30T17:20:06.836Z,3.92
2022-07-30T17:22:56.528Z,2.80
2022-07-30T17:25:43.563Z,1.73
2022-07-30T17:28:30.652Z,2.08
2022-07-30T17:31:18.097Z,3.55
2022-07-30T17:34:08.954Z,1.90
2022-07-30T17:36:56.451Z,3.95
2022-07-30T17:40:28.175Z,2.50
2022-07-30T17:42:50.904Z,3.25
2022-07-30T17:45:37.856Z,4.50
2022-07-30T17:48:24.945Z,3.30
2022-07-30T17:51:11.987Z,2.80
2022-07-30T17:53:59.416Z,3.22
2022-07-30T17:56:46.480Z,2.67
2022-07-30T17:59:33.885Z,4.75
2022-07-30T18:02:28.560Z,3.78
2022-07-30T18:05:16.247Z,3.05
2022-07-30T18:08:03.383Z,3.05
2022-07-30T18:10:51.304Z,6.15
2022-07-30T18:13:38.821Z,2.90
2022-07-30T18:16:26.241Z,2.92
2022-07-30T18:19:22.819Z,2.25
2022-07-30T18:22:14.975Z,2.22
2022-07-30T18:25:02.177Z,2.17
2022-07-30T18:27:49.278Z,2.40
2022-07-30T18:30:37.129Z,3.30
2022-07-30T18:33:24.132Z,5.45
2022-07-30T18:36:11.700Z,4.68
2022-07-30T18:38:58.715Z,27.67
2022-07-30T18:41:46.170Z,12.93
2022-07-30T18:44:33.797Z,11.07
2022-07-30T18:47:21.294Z,16.80
2022-07-30T18:50:09.020Z,10.80
2022-07-30T18:52:56.873Z,8.20
2022-07-30T18:55:45.019Z,15.95
2022-07-30T18:58:32.443Z,9.30
2022-07-30T19:01:20.095Z,10.65
2022-07-30T19:04:07.726Z,9.70
2022-07-30T19:06:54.769Z,8.13
2022-07-30T19:09:43.330Z,11.48
2022-07-30T19:12:32.737Z,8.73
2022-07-30T19:15:19.756Z,10.07
2022-07-30T19:18:07.214Z,8.98
2022-07-30T19:20:54.180Z,10.82
2022-07-30T19:23:41.606Z,13.68
2022-07-30T19:26:28.617Z,11.65
2022-07-30T19:29:16.084Z,9.48
2022-07-30T19:32:03.707Z,11.38
2022-07-30T19:34:51.398Z,10.35
2022-07-30T19:37:38.527Z,11.43
2022-07-30T19:40:27.281Z,10.52
2022-07-30T19:43:14.303Z,9.82
2022-07-30T19:46:02.049Z,13.73
2022-07-30T19:48:50.586Z,8.77
2022-07-30T19:52:07.007Z,10.85
2022-07-30T19:54:45.575Z,10.93
2022-07-30T19:57:45.691Z,9.35
2022-07-30T20:00:39.953Z,8.73
2022-07-30T20:03:31.492Z,9.60
2022-07-30T20:06:19.204Z,8.20
2022-07-30T20:09:11.338Z,9.32
2022-07-30T20:12:02.577Z,8.07
2022-07-30T20:14:50.601Z,7.82
2022-07-30T20:17:38.066Z,7.30
2022-07-30T20:20:28.530Z,7.60
2022-07-30T20:23:15.378Z,7.63
2022-07-30T20:26:12.491Z,9.00
2022-07-30T20:29:00.347Z,8.35
2022-07-30T20:31:49.748Z,9.55
2022-07-30T20:34:37.654Z,10.05
2022-07-30T20:37:24.715Z,6.60
2022-07-30T20:40:14.736Z,8.63
2022-07-30T20:43:05.840Z,7.82
2022-07-30T20:45:52.930Z,7.18
2022-07-30T20:48:42.246Z,7.32
2022-07-30T20:51:32.921Z,8.73
2022-07-30T20:54:21.369Z,8.95
2022-07-30T20:57:15.393Z,7.13
2022-07-30T21:00:03.276Z,8.10
2022-07-30T21:02:50.833Z,7.90
2022-07-30T21:05:39.939Z,6.40
2022-07-30T21:08:27.407Z,6.50
2022-07-30T21:11:14.652Z,6.38
2022-07-30T21:14:02.139Z,7.15
2022-07-30T21:16:52.114Z,6.70
2022-07-30T21:19:43.219Z,5.82
2022-07-30T21:22:31.973Z,5.82
2022-07-30T21:25:19.436Z,6.05
2022-07-30T21:28:06.449Z,6.90
2022-07-30T21:30:53.656Z,6.60
2022-07-30T21:33:44.354Z,6.30
2022-07-30T21:36:33.174Z,5.90
2022-07-30T21:39:29.069Z,5.82
2022-07-30T21:42:16.431Z,9.30
2022-07-30T21:45:04.216Z,9.07
2022-07-30T21:47:51.402Z,6.68
2022-07-30T21:50:40.373Z,6.20
2022-07-30T21:53:45.319Z,6.88
2022-07-30T21:56:33.993Z,6.95
2022-07-30T21:59:21.887Z,5.60
2022-07-30T22:02:15.815Z,6.35
2022-07-30T22:05:06.523Z,6.85
2022-07-30T22:07:53.862Z,6.95
2022-07-30T22:10:46.442Z,7.88
2022-07-30T22:13:53.433Z,7.10
2022-07-30T22:16:45.826Z,7.65
2022-07-30T22:19:33.236Z,7.50
2022-07-30T22:22:26.757Z,8.23
2022-07-30T22:25:15.941Z,7.40
2022-07-30T22:28:03.286Z,7.25
2022-07-30T22:30:51.658Z,9.20
2022-07-30T22:33:39.153Z,9.07
2022-07-30T22:36:26.122Z,8.52
2022-07-30T22:39:13.782Z,7.60
2022-07-30T22:42:01.500Z,8.52
2022-07-30T22:44:49.571Z,7.38
2022-07-30T22:47:53.861Z,8.15
2022-07-30T22:50:41.636Z,7.13
2022-07-30T22:54:02.528Z,7.45
2022-07-30T22:56:39.387Z,6.93
2022-07-30T22:59:55.910Z,8.20
2022-07-30T23:02:34.657Z,8.55
2022-07-30T23:05:22.298Z,8.07
2022-07-30T23:08:10.169Z,6.68
2022-07-30T23:10:57.770Z,6.18
2022-07-30T23:13:44.882Z,5.97
2022-07-30T23:16:32.492Z,5.53
2022-07-30T23:19:21.909Z,7.20
2022-07-30T23:22:10.662Z,5.70
2022-07-30T23:24:57.636Z,6.25
2022-07-30T23:27:47.065Z,5.53
2022-07-30T23:30:34.466Z,6.22
2022-07-30T23:33:22.053Z,5.80
2022-07-30T23:36:09.895Z,7.03
2022-07-30T23:38:56.897Z,5.45
2022-07-30T23:41:45.704Z,7.03
2022-07-30T23:44:36.963Z,6.72
2022-07-30T23:47:56.526Z,7.00
2022-07-30T23:50:32.952Z,7.10
2022-07-30T23:53:21.152Z,6.07
2022-07-30T23:56:15.623Z,6.60
2022-07-30T23:59:02.672Z,6.50
